This is the latest recevied weather packets stored in our database for station/object KI5NYZ-13. If no packets are shown the sender has not sent any weather packets the latest 10 day(s).
| Time | Temp. | Humidity | Pressure | Rain* | Wind** | Luminosity | Snow |
|---|---|---|---|---|---|---|---|
| 1778171571 | 16.11° C | 47% | 1018.7 hPa | 0 mm | - | - | - |
| 1778169769 | 14.44° C | 51% | 1019.5 hPa | 0 mm | - | - | - |
| 1778167968 | 13.89° C | 54% | 1019.9 hPa | 0 mm | - | - | - |
| 1778166079 | 12.78° C | 58% | 1020.4 hPa | 0 mm | - | - | - |
| 1778164277 | 11.67° C | 59% | 1021.1 hPa | 0 mm | - | - | - |
| 1778162476 | 10.56° C | 61% | 1021.4 hPa | 0 mm | - | - | - |
| 1778160676 | 10° C | 59% | 1021.5 hPa | 0 mm | - | - | - |
| 1778158874 | 8.89° C | 60% | 1021.6 hPa | 0 mm | - | - | - |
| 1778157073 | 7.78° C | 63% | 1021.6 hPa | 0 mm | - | - | - |
| 1778155272 | 8.33° C | 62% | 1021.3 hPa | 0 mm | - | - | - |
| 1778153471 | 9.44° C | 59% | 1020.8 hPa | 0 mm | - | - | - |
| 1778151670 | 10° C | 58% | 1020.7 hPa | 0 mm | - | - | - |
| 1778149869 | 10° C | 59% | 1020.6 hPa | 0 mm | - | - | - |
| 1778148068 | 9.44° C | 66% | 1020.8 hPa | 0 mm | - | - | - |
| 1778146267 | 9.44° C | 68% | 1020.5 hPa | 0 mm | - | - | - |
| 1778144466 | 10° C | 66% | 1020.2 hPa | 0 mm | - | - | - |
| 1778142665 | 10.56° C | 65% | 1019.7 hPa | 0 mm | - | - | - |
| 1778140864 | 11.11° C | 62% | 1019.5 hPa | 0 mm | - | - | - |
| 1778139063 | 11.67° C | 61% | 1018.9 hPa | 0 mm | - | - | - |
| 1778137262 | 12.22° C | 58% | 1018.5 hPa | 0 mm | - | - | - |
| 1778135461 | 12.78° C | 56% | 1018.3 hPa | 0 mm | - | - | - |
| 1778133660 | 12.78° C | 57% | 1017 hPa | 0 mm | - | - | - |
| 1778131859 | 14.44° C | 54% | 1015.9 hPa | 0 mm | - | - | - |
| 1778130058 | 15° C | 50% | 1014.9 hPa | 0.51 mm | - | - | - |
| 1778127320 | 16.11° C | 46% | 1013.8 hPa | 4.83 mm | - | - | - |
* Rain latest hour (hover to see other rain measurements)
** Current wind speed in m/s (hover to see current wind gust speed)